sensor_id;sensor_type;location;lat;lon;timestamp;P1;durP1;ratioP1;P2;durP2;ratioP2
17006;SDS011;8620;51.168;4.154;2022-09-25T00:00:51;0.70;;;0.70;;
17006;SDS011;8620;51.168;4.154;2022-09-25T00:03:19;0.80;;;0.80;;
17006;SDS011;8620;51.168;4.154;2022-09-25T00:05:47;0.90;;;0.90;;
17006;SDS011;8620;51.168;4.154;2022-09-25T00:08:14;0.70;;;0.70;;
17006;SDS011;8620;51.168;4.154;2022-09-25T00:10:42;0.70;;;0.70;;
17006;SDS011;8620;51.168;4.154;2022-09-25T00:13:15;0.80;;;0.80;;
17006;SDS011;8620;51.168;4.154;2022-09-25T00:15:53;0.80;;;0.80;;
17006;SDS011;8620;51.168;4.154;2022-09-25T00:18:21;0.80;;;0.80;;
17006;SDS011;8620;51.168;4.154;2022-09-25T00:21:09;0.90;;;0.90;;
17006;SDS011;8620;51.168;4.154;2022-09-25T00:23:38;0.90;;;0.90;;
17006;SDS011;8620;51.168;4.154;2022-09-25T00:26:06;1.00;;;1.00;;
17006;SDS011;8620;51.168;4.154;2022-09-25T00:28:33;1.00;;;1.00;;
17006;SDS011;8620;51.168;4.154;2022-09-25T00:31:01;1.10;;;1.10;;
17006;SDS011;8620;51.168;4.154;2022-09-25T00:33:29;1.10;;;1.10;;
17006;SDS011;8620;51.168;4.154;2022-09-25T00:36:00;0.97;;;0.97;;
17006;SDS011;8620;51.168;4.154;2022-09-25T00:38:32;1.00;;;1.00;;
17006;SDS011;8620;51.168;4.154;2022-09-25T00:41:00;0.93;;;0.93;;
17006;SDS011;8620;51.168;4.154;2022-09-25T00:51:29;0.80;;;0.80;;
17006;SDS011;8620;51.168;4.154;2022-09-25T00:54:22;0.80;;;0.80;;
17006;SDS011;8620;51.168;4.154;2022-09-25T00:57:00;1.00;;;1.00;;
17006;SDS011;8620;51.168;4.154;2022-09-25T00:59:32;0.90;;;0.90;;
17006;SDS011;8620;51.168;4.154;2022-09-25T01:02:20;1.00;;;1.00;;
17006;SDS011;8620;51.168;4.154;2022-09-25T01:04:50;1.00;;;1.00;;
17006;SDS011;8620;51.168;4.154;2022-09-25T01:07:17;1.10;;;1.10;;
17006;SDS011;8620;51.168;4.154;2022-09-25T01:09:44;1.10;;;1.10;;
17006;SDS011;8620;51.168;4.154;2022-09-25T01:12:11;1.10;;;1.10;;
17006;SDS011;8620;51.168;4.154;2022-09-25T01:14:37;1.10;;;1.10;;
17006;SDS011;8620;51.168;4.154;2022-09-25T01:17:26;1.00;;;1.00;;
17006;SDS011;8620;51.168;4.154;2022-09-25T01:20:14;1.20;;;1.20;;
17006;SDS011;8620;51.168;4.154;2022-09-25T01:23:26;1.00;;;1.00;;
17006;SDS011;8620;51.168;4.154;2022-09-25T01:32:46;0.90;;;0.90;;
17006;SDS011;8620;51.168;4.154;2022-09-25T01:35:30;1.00;;;1.00;;
17006;SDS011;8620;51.168;4.154;2022-09-25T01:44:10;1.20;;;1.20;;
17006;SDS011;8620;51.168;4.154;2022-09-25T01:47:08;1.10;;;1.10;;
17006;SDS011;8620;51.168;4.154;2022-09-25T01:49:52;1.27;;;1.27;;
17006;SDS011;8620;51.168;4.154;2022-09-25T01:52:36;1.20;;;1.20;;
17006;SDS011;8620;51.168;4.154;2022-09-25T01:55:11;1.20;;;1.20;;
17006;SDS011;8620;51.168;4.154;2022-09-25T02:01:07;1.10;;;1.10;;
17006;SDS011;8620;51.168;4.154;2022-09-25T02:03:57;1.30;;;1.30;;
17006;SDS011;8620;51.168;4.154;2022-09-25T02:06:28;1.30;;;1.30;;
17006;SDS011;8620;51.168;4.154;2022-09-25T02:09:00;1.20;;;1.20;;
17006;SDS011;8620;51.168;4.154;2022-09-25T02:11:36;1.20;;;1.20;;
17006;SDS011;8620;51.168;4.154;2022-09-25T02:14:11;1.57;;;1.57;;
17006;SDS011;8620;51.168;4.154;2022-09-25T02:16:49;1.00;;;1.00;;
17006;SDS011;8620;51.168;4.154;2022-09-25T02:19:19;1.10;;;1.10;;
17006;SDS011;8620;51.168;4.154;2022-09-25T02:24:44;1.20;;;1.20;;
17006;SDS011;8620;51.168;4.154;2022-09-25T02:27:20;1.00;;;1.00;;
17006;SDS011;8620;51.168;4.154;2022-09-25T02:29:48;1.00;;;1.00;;
17006;SDS011;8620;51.168;4.154;2022-09-25T02:32:21;0.90;;;0.90;;
17006;SDS011;8620;51.168;4.154;2022-09-25T02:34:58;1.00;;;1.00;;
17006;SDS011;8620;51.168;4.154;2022-09-25T02:37:25;0.90;;;0.90;;
17006;SDS011;8620;51.168;4.154;2022-09-25T02:39:52;1.00;;;1.00;;
17006;SDS011;8620;51.168;4.154;2022-09-25T02:45:18;1.00;;;1.00;;
17006;SDS011;8620;51.168;4.154;2022-09-25T02:51:08;1.20;;;1.20;;
17006;SDS011;8620;51.168;4.154;2022-09-25T02:54:11;1.17;;;1.17;;
17006;SDS011;8620;51.168;4.154;2022-09-25T03:00:03;1.20;;;1.20;;
17006;SDS011;8620;51.168;4.154;2022-09-25T03:02:32;1.10;;;1.10;;
17006;SDS011;8620;51.168;4.154;2022-09-25T03:04:59;1.20;;;1.20;;
17006;SDS011;8620;51.168;4.154;2022-09-25T03:07:28;1.20;;;1.20;;
17006;SDS011;8620;51.168;4.154;2022-09-25T03:10:14;1.10;;;1.10;;
17006;SDS011;8620;51.168;4.154;2022-09-25T03:12:42;1.20;;;1.20;;
17006;SDS011;8620;51.168;4.154;2022-09-25T03:15:09;1.10;;;1.10;;
17006;SDS011;8620;51.168;4.154;2022-09-25T03:17:36;1.27;;;1.27;;
17006;SDS011;8620;51.168;4.154;2022-09-25T03:20:04;1.10;;;1.10;;
17006;SDS011;8620;51.168;4.154;2022-09-25T03:22:32;1.40;;;1.40;;
17006;SDS011;8620;51.168;4.154;2022-09-25T03:24:58;1.30;;;1.30;;
17006;SDS011;8620;51.168;4.154;2022-09-25T03:27:24;1.30;;;1.30;;
17006;SDS011;8620;51.168;4.154;2022-09-25T03:29:52;1.30;;;1.30;;
17006;SDS011;8620;51.168;4.154;2022-09-25T03:32:19;1.37;;;1.37;;
17006;SDS011;8620;51.168;4.154;2022-09-25T03:34:46;1.20;;;1.20;;
17006;SDS011;8620;51.168;4.154;2022-09-25T03:37:12;1.10;;;1.10;;
17006;SDS011;8620;51.168;4.154;2022-09-25T03:39:38;1.10;;;1.10;;
17006;SDS011;8620;51.168;4.154;2022-09-25T03:42:04;1.07;;;1.07;;
17006;SDS011;8620;51.168;4.154;2022-09-25T03:44:30;1.10;;;1.10;;
17006;SDS011;8620;51.168;4.154;2022-09-25T03:46:56;3.13;;;2.03;;
17006;SDS011;8620;51.168;4.154;2022-09-25T03:49:22;1.20;;;1.20;;
17006;SDS011;8620;51.168;4.154;2022-09-25T03:51:48;1.30;;;1.30;;
17006;SDS011;8620;51.168;4.154;2022-09-25T03:54:14;1.33;;;1.33;;
17006;SDS011;8620;51.168;4.154;2022-09-25T03:56:40;1.23;;;1.23;;
17006;SDS011;8620;51.168;4.154;2022-09-25T03:59:06;1.20;;;1.20;;
17006;SDS011;8620;51.168;4.154;2022-09-25T04:01:31;1.20;;;1.20;;
17006;SDS011;8620;51.168;4.154;2022-09-25T04:03:57;1.40;;;1.40;;
17006;SDS011;8620;51.168;4.154;2022-09-25T04:06:25;1.40;;;1.40;;
17006;SDS011;8620;51.168;4.154;2022-09-25T04:08:51;1.50;;;1.50;;
17006;SDS011;8620;51.168;4.154;2022-09-25T04:11:18;1.40;;;1.40;;
17006;SDS011;8620;51.168;4.154;2022-09-25T04:13:46;1.47;;;1.47;;
17006;SDS011;8620;51.168;4.154;2022-09-25T04:16:13;1.40;;;1.40;;
17006;SDS011;8620;51.168;4.154;2022-09-25T04:18:40;1.30;;;1.30;;
17006;SDS011;8620;51.168;4.154;2022-09-25T04:21:07;1.30;;;1.30;;
17006;SDS011;8620;51.168;4.154;2022-09-25T04:23:36;1.30;;;1.30;;
17006;SDS011;8620;51.168;4.154;2022-09-25T04:26:03;1.50;;;1.50;;
17006;SDS011;8620;51.168;4.154;2022-09-25T04:28:29;1.40;;;1.40;;
17006;SDS011;8620;51.168;4.154;2022-09-25T04:30:57;1.57;;;1.57;;
17006;SDS011;8620;51.168;4.154;2022-09-25T04:33:24;1.60;;;1.60;;
17006;SDS011;8620;51.168;4.154;2022-09-25T04:36:08;1.33;;;1.33;;
17006;SDS011;8620;51.168;4.154;2022-09-25T04:38:35;1.40;;;1.40;;
17006;SDS011;8620;51.168;4.154;2022-09-25T04:41:01;1.30;;;1.30;;
17006;SDS011;8620;51.168;4.154;2022-09-25T04:43:27;1.33;;;1.33;;
17006;SDS011;8620;51.168;4.154;2022-09-25T04:45:54;1.20;;;1.20;;
17006;SDS011;8620;51.168;4.154;2022-09-25T04:48:30;1.20;;;1.20;;
17006;SDS011;8620;51.168;4.154;2022-09-25T04:50:56;1.20;;;1.20;;
17006;SDS011;8620;51.168;4.154;2022-09-25T04:53:23;1.10;;;1.10;;
17006;SDS011;8620;51.168;4.154;2022-09-25T04:55:51;1.10;;;1.10;;
17006;SDS011;8620;51.168;4.154;2022-09-25T04:58:21;1.40;;;1.40;;
17006;SDS011;8620;51.168;4.154;2022-09-25T05:00:46;1.20;;;1.20;;
17006;SDS011;8620;51.168;4.154;2022-09-25T05:03:13;1.30;;;1.30;;
17006;SDS011;8620;51.168;4.154;2022-09-25T05:05:39;1.40;;;1.40;;
17006;SDS011;8620;51.168;4.154;2022-09-25T05:08:05;1.37;;;1.37;;
17006;SDS011;8620;51.168;4.154;2022-09-25T05:10:32;1.33;;;1.33;;
17006;SDS011;8620;51.168;4.154;2022-09-25T05:13:04;1.43;;;1.43;;
17006;SDS011;8620;51.168;4.154;2022-09-25T05:15:32;1.40;;;1.40;;
17006;SDS011;8620;51.168;4.154;2022-09-25T05:17:59;1.40;;;1.40;;
17006;SDS011;8620;51.168;4.154;2022-09-25T05:20:27;1.50;;;1.50;;
17006;SDS011;8620;51.168;4.154;2022-09-25T05:22:53;1.40;;;1.40;;
17006;SDS011;8620;51.168;4.154;2022-09-25T05:25:22;1.40;;;1.40;;
17006;SDS011;8620;51.168;4.154;2022-09-25T05:27:50;1.40;;;1.40;;
17006;SDS011;8620;51.168;4.154;2022-09-25T05:30:19;1.23;;;1.23;;
17006;SDS011;8620;51.168;4.154;2022-09-25T05:32:47;1.20;;;1.20;;
17006;SDS011;8620;51.168;4.154;2022-09-25T05:35:17;1.30;;;1.30;;
17006;SDS011;8620;51.168;4.154;2022-09-25T05:37:46;1.20;;;1.20;;
17006;SDS011;8620;51.168;4.154;2022-09-25T05:40:12;1.40;;;1.40;;
17006;SDS011;8620;51.168;4.154;2022-09-25T05:42:43;1.20;;;1.20;;
17006;SDS011;8620;51.168;4.154;2022-09-25T05:45:18;2.07;;;1.97;;
17006;SDS011;8620;51.168;4.154;2022-09-25T05:47:46;1.20;;;1.20;;
17006;SDS011;8620;51.168;4.154;2022-09-25T05:50:12;1.40;;;1.40;;
17006;SDS011;8620;51.168;4.154;2022-09-25T05:52:40;1.30;;;1.30;;
17006;SDS011;8620;51.168;4.154;2022-09-25T05:55:07;1.30;;;1.30;;
17006;SDS011;8620;51.168;4.154;2022-09-25T05:57:35;1.30;;;1.30;;
17006;SDS011;8620;51.168;4.154;2022-09-25T06:00:02;1.40;;;1.40;;
17006;SDS011;8620;51.168;4.154;2022-09-25T06:02:32;1.40;;;1.40;;
17006;SDS011;8620;51.168;4.154;2022-09-25T06:04:58;1.30;;;1.30;;
17006;SDS011;8620;51.168;4.154;2022-09-25T06:07:27;1.30;;;1.30;;
17006;SDS011;8620;51.168;4.154;2022-09-25T06:09:54;1.37;;;1.37;;
17006;SDS011;8620;51.168;4.154;2022-09-25T06:12:20;1.40;;;1.40;;
17006;SDS011;8620;51.168;4.154;2022-09-25T06:14:49;1.20;;;1.20;;
17006;SDS011;8620;51.168;4.154;2022-09-25T06:17:16;1.20;;;1.20;;
17006;SDS011;8620;51.168;4.154;2022-09-25T06:19:42;1.20;;;1.20;;
17006;SDS011;8620;51.168;4.154;2022-09-25T06:22:08;1.40;;;1.40;;
17006;SDS011;8620;51.168;4.154;2022-09-25T06:24:33;1.30;;;1.30;;
17006;SDS011;8620;51.168;4.154;2022-09-25T06:26:59;1.40;;;1.40;;
17006;SDS011;8620;51.168;4.154;2022-09-25T06:29:25;1.27;;;1.27;;
17006;SDS011;8620;51.168;4.154;2022-09-25T06:31:51;1.17;;;1.17;;
17006;SDS011;8620;51.168;4.154;2022-09-25T06:34:17;1.23;;;1.23;;
17006;SDS011;8620;51.168;4.154;2022-09-25T06:36:44;1.20;;;1.20;;
17006;SDS011;8620;51.168;4.154;2022-09-25T06:39:10;1.03;;;1.03;;
17006;SDS011;8620;51.168;4.154;2022-09-25T06:41:36;1.10;;;1.10;;
17006;SDS011;8620;51.168;4.154;2022-09-25T06:44:03;1.20;;;1.20;;
17006;SDS011;8620;51.168;4.154;2022-09-25T06:46:29;1.10;;;1.10;;
17006;SDS011;8620;51.168;4.154;2022-09-25T06:48:55;1.17;;;1.17;;
17006;SDS011;8620;51.168;4.154;2022-09-25T06:51:25;1.20;;;1.20;;
17006;SDS011;8620;51.168;4.154;2022-09-25T06:53:55;1.00;;;1.00;;
17006;SDS011;8620;51.168;4.154;2022-09-25T06:56:21;0.70;;;0.70;;
17006;SDS011;8620;51.168;4.154;2022-09-25T06:58:47;0.40;;;0.40;;
17006;SDS011;8620;51.168;4.154;2022-09-25T07:01:13;0.50;;;0.50;;
17006;SDS011;8620;51.168;4.154;2022-09-25T07:03:39;0.50;;;0.50;;
17006;SDS011;8620;51.168;4.154;2022-09-25T07:06:15;0.70;;;0.70;;
17006;SDS011;8620;51.168;4.154;2022-09-25T07:08:45;2.10;;;2.00;;
17006;SDS011;8620;51.168;4.154;2022-09-25T07:14:08;7.20;;;7.00;;
17006;SDS011;8620;51.168;4.154;2022-09-25T07:16:39;10.45;;;10.15;;
17006;SDS011;8620;51.168;4.154;2022-09-25T07:19:12;10.90;;;10.60;;
17006;SDS011;8620;51.168;4.154;2022-09-25T07:22:15;8.60;;;8.30;;
17006;SDS011;8620;51.168;4.154;2022-09-25T07:25:09;3.03;;;2.92;;
17006;SDS011;8620;51.168;4.154;2022-09-25T07:27:59;0.98;;;0.98;;
17006;SDS011;8620;51.168;4.154;2022-09-25T07:30:28;0.40;;;0.40;;
17006;SDS011;8620;51.168;4.154;2022-09-25T07:32:57;0.40;;;0.40;;
17006;SDS011;8620;51.168;4.154;2022-09-25T07:35:23;0.30;;;0.30;;
17006;SDS011;8620;51.168;4.154;2022-09-25T07:37:57;0.30;;;0.30;;
17006;SDS011;8620;51.168;4.154;2022-09-25T07:40:23;0.30;;;0.30;;
17006;SDS011;8620;51.168;4.154;2022-09-25T07:42:51;0.30;;;0.30;;
17006;SDS011;8620;51.168;4.154;2022-09-25T07:45:17;0.40;;;0.40;;
17006;SDS011;8620;51.168;4.154;2022-09-25T07:47:43;0.40;;;0.40;;
17006;SDS011;8620;51.168;4.154;2022-09-25T07:50:11;0.40;;;0.40;;
17006;SDS011;8620;51.168;4.154;2022-09-25T07:52:40;0.30;;;0.30;;
17006;SDS011;8620;51.168;4.154;2022-09-25T07:55:06;0.30;;;0.30;;
17006;SDS011;8620;51.168;4.154;2022-09-25T07:57:33;0.38;;;0.38;;
17006;SDS011;8620;51.168;4.154;2022-09-25T07:59:58;0.30;;;0.30;;
17006;SDS011;8620;51.168;4.154;2022-09-25T08:02:24;0.30;;;0.30;;
17006;SDS011;8620;51.168;4.154;2022-09-25T08:04:50;0.30;;;0.30;;
17006;SDS011;8620;51.168;4.154;2022-09-25T08:07:17;0.20;;;0.20;;
17006;SDS011;8620;51.168;4.154;2022-09-25T08:09:43;0.20;;;0.20;;
17006;SDS011;8620;51.168;4.154;2022-09-25T08:12:10;2.08;;;1.95;;
17006;SDS011;8620;51.168;4.154;2022-09-25T08:14:37;1.30;;;1.05;;
17006;SDS011;8620;51.168;4.154;2022-09-25T08:17:14;0.22;;;0.22;;
17006;SDS011;8620;51.168;4.154;2022-09-25T08:19:46;0.20;;;0.20;;
17006;SDS011;8620;51.168;4.154;2022-09-25T08:22:29;0.20;;;0.20;;
17006;SDS011;8620;51.168;4.154;2022-09-25T08:25:03;0.20;;;0.20;;
17006;SDS011;8620;51.168;4.154;2022-09-25T08:27:34;0.17;;;0.17;;
17006;SDS011;8620;51.168;4.154;2022-09-25T08:30:07;0.52;;;0.52;;
17006;SDS011;8620;51.168;4.154;2022-09-25T08:32:44;0.10;;;0.10;;
17006;SDS011;8620;51.168;4.154;2022-09-25T08:35:16;0.10;;;0.10;;
17006;SDS011;8620;51.168;4.154;2022-09-25T08:37:48;0.10;;;0.10;;
17006;SDS011;8620;51.168;4.154;2022-09-25T08:40:22;0.20;;;0.20;;
17006;SDS011;8620;51.168;4.154;2022-09-25T08:42:56;0.20;;;0.20;;
17006;SDS011;8620;51.168;4.154;2022-09-25T08:45:32;0.20;;;0.20;;
17006;SDS011;8620;51.168;4.154;2022-09-25T08:48:31;0.20;;;0.20;;
17006;SDS011;8620;51.168;4.154;2022-09-25T08:51:26;0.20;;;0.20;;
17006;SDS011;8620;51.168;4.154;2022-09-25T08:54:22;0.20;;;0.20;;
17006;SDS011;8620;51.168;4.154;2022-09-25T09:05:39;0.10;;;0.10;;
17006;SDS011;8620;51.168;4.154;2022-09-25T09:08:22;0.10;;;0.10;;
17006;SDS011;8620;51.168;4.154;2022-09-25T09:20:57;1.13;;;0.30;;
17006;SDS011;8620;51.168;4.154;2022-09-25T10:06:09;0.10;;;0.10;;
17006;SDS011;8620;51.168;4.154;2022-09-25T10:09:02;0.10;;;0.10;;
17006;SDS011;8620;51.168;4.154;2022-09-25T10:11:38;0.10;;;0.10;;
17006;SDS011;8620;51.168;4.154;2022-09-25T10:14:08;0.10;;;0.10;;
17006;SDS011;8620;51.168;4.154;2022-09-25T10:16:50;0.10;;;0.10;;
17006;SDS011;8620;51.168;4.154;2022-09-25T10:19:24;0.25;;;0.25;;
17006;SDS011;8620;51.168;4.154;2022-09-25T10:33:30;0.10;;;0.10;;
17006;SDS011;8620;51.168;4.154;2022-09-25T10:36:11;0.10;;;0.10;;
17006;SDS011;8620;51.168;4.154;2022-09-25T10:41:15;0.10;;;0.10;;
17006;SDS011;8620;51.168;4.154;2022-09-25T10:43:55;0.10;;;0.10;;
17006;SDS011;8620;51.168;4.154;2022-09-25T10:53:27;0.17;;;0.17;;
17006;SDS011;8620;51.168;4.154;2022-09-25T10:56:00;0.10;;;0.10;;
17006;SDS011;8620;51.168;4.154;2022-09-25T10:59:00;0.10;;;0.10;;
17006;SDS011;8620;51.168;4.154;2022-09-25T11:01:34;0.10;;;0.10;;
17006;SDS011;8620;51.168;4.154;2022-09-25T11:04:45;0.30;;;0.30;;
17006;SDS011;8620;51.168;4.154;2022-09-25T11:06:57;0.10;;;0.10;;
17006;SDS011;8620;51.168;4.154;2022-09-25T11:09:31;0.20;;;0.20;;
17006;SDS011;8620;51.168;4.154;2022-09-25T11:12:05;0.30;;;0.30;;
17006;SDS011;8620;51.168;4.154;2022-09-25T11:14:41;0.10;;;0.10;;
17006;SDS011;8620;51.168;4.154;2022-09-25T11:20:20;0.10;;;0.10;;
17006;SDS011;8620;51.168;4.154;2022-09-25T11:47:03;0.10;;;0.10;;
17006;SDS011;8620;51.168;4.154;2022-09-25T11:49:47;0.10;;;0.10;;
17006;SDS011;8620;51.168;4.154;2022-09-25T12:09:53;0.43;;;0.13;;
17006;SDS011;8620;51.168;4.154;2022-09-25T12:13:00;0.10;;;0.10;;
17006;SDS011;8620;51.168;4.154;2022-09-25T12:15:50;0.10;;;0.10;;
17006;SDS011;8620;51.168;4.154;2022-09-25T12:21:27;0.10;;;0.10;;
17006;SDS011;8620;51.168;4.154;2022-09-25T12:24:12;0.65;;;0.40;;
17006;SDS011;8620;51.168;4.154;2022-09-25T12:30:19;0.10;;;0.10;;
17006;SDS011;8620;51.168;4.154;2022-09-25T12:41:33;0.10;;;0.10;;
17006;SDS011;8620;51.168;4.154;2022-09-25T12:44:11;0.10;;;0.10;;
17006;SDS011;8620;51.168;4.154;2022-09-25T12:52:46;0.10;;;0.10;;
17006;SDS011;8620;51.168;4.154;2022-09-25T12:55:36;0.10;;;0.10;;
17006;SDS011;8620;51.168;4.154;2022-09-25T13:01:35;0.17;;;0.17;;
17006;SDS011;8620;51.168;4.154;2022-09-25T13:10:18;0.10;;;0.10;;
17006;SDS011;8620;51.168;4.154;2022-09-25T13:12:54;0.10;;;0.10;;
17006;SDS011;8620;51.168;4.154;2022-09-25T13:15:33;0.10;;;0.10;;
17006;SDS011;8620;51.168;4.154;2022-09-25T13:18:24;0.10;;;0.10;;
17006;SDS011;8620;51.168;4.154;2022-09-25T13:20:55;0.10;;;0.10;;
17006;SDS011;8620;51.168;4.154;2022-09-25T13:23:48;0.10;;;0.10;;
17006;SDS011;8620;51.168;4.154;2022-09-25T13:26:18;0.10;;;0.10;;
17006;SDS011;8620;51.168;4.154;2022-09-25T13:29:02;0.10;;;0.10;;
17006;SDS011;8620;51.168;4.154;2022-09-25T13:31:42;0.10;;;0.10;;
17006;SDS011;8620;51.168;4.154;2022-09-25T13:34:11;0.10;;;0.10;;
17006;SDS011;8620;51.168;4.154;2022-09-25T13:36:44;0.10;;;0.10;;
17006;SDS011;8620;51.168;4.154;2022-09-25T13:42:33;0.10;;;0.10;;
17006;SDS011;8620;51.168;4.154;2022-09-25T13:45:04;0.10;;;0.10;;
17006;SDS011;8620;51.168;4.154;2022-09-25T13:47:55;0.20;;;0.20;;
17006;SDS011;8620;51.168;4.154;2022-09-25T13:50:33;0.28;;;0.20;;
17006;SDS011;8620;51.168;4.154;2022-09-25T14:04:45;0.10;;;0.10;;
17006;SDS011;8620;51.168;4.154;2022-09-25T14:07:12;0.10;;;0.10;;
17006;SDS011;8620;51.168;4.154;2022-09-25T14:09:56;0.10;;;0.10;;
17006;SDS011;8620;51.168;4.154;2022-09-25T14:12:40;0.20;;;0.20;;
17006;SDS011;8620;51.168;4.154;2022-09-25T14:15:34;0.10;;;0.10;;
17006;SDS011;8620;51.168;4.154;2022-09-25T14:21:30;0.20;;;0.20;;
17006;SDS011;8620;51.168;4.154;2022-09-25T14:24:18;0.20;;;0.20;;
17006;SDS011;8620;51.168;4.154;2022-09-25T14:26:49;0.20;;;0.20;;
17006;SDS011;8620;51.168;4.154;2022-09-25T14:29:49;0.20;;;0.20;;
17006;SDS011;8620;51.168;4.154;2022-09-25T14:39:09;0.20;;;0.20;;
17006;SDS011;8620;51.168;4.154;2022-09-25T14:41:55;0.20;;;0.20;;
17006;SDS011;8620;51.168;4.154;2022-09-25T14:47:55;0.17;;;0.17;;
17006;SDS011;8620;51.168;4.154;2022-09-25T14:50:48;0.10;;;0.10;;
17006;SDS011;8620;51.168;4.154;2022-09-25T14:53:42;0.10;;;0.10;;
17006;SDS011;8620;51.168;4.154;2022-09-25T14:56:34;0.17;;;0.17;;
17006;SDS011;8620;51.168;4.154;2022-09-25T14:59:16;0.10;;;0.10;;
17006;SDS011;8620;51.168;4.154;2022-09-25T15:02:07;0.10;;;0.10;;
17006;SDS011;8620;51.168;4.154;2022-09-25T15:04:50;0.10;;;0.10;;
17006;SDS011;8620;51.168;4.154;2022-09-25T15:11:37;0.10;;;0.10;;
17006;SDS011;8620;51.168;4.154;2022-09-25T15:14:20;0.10;;;0.10;;
17006;SDS011;8620;51.168;4.154;2022-09-25T15:29:19;0.10;;;0.10;;
17006;SDS011;8620;51.168;4.154;2022-09-25T15:32:01;0.20;;;0.20;;
17006;SDS011;8620;51.168;4.154;2022-09-25T15:43:53;0.20;;;0.20;;
17006;SDS011;8620;51.168;4.154;2022-09-25T15:56:59;0.20;;;0.20;;
17006;SDS011;8620;51.168;4.154;2022-09-25T16:03:16;0.20;;;0.20;;
17006;SDS011;8620;51.168;4.154;2022-09-25T16:06:41;0.20;;;0.20;;
17006;SDS011;8620;51.168;4.154;2022-09-25T16:14:46;0.20;;;0.20;;
17006;SDS011;8620;51.168;4.154;2022-09-25T16:17:19;0.10;;;0.10;;
17006;SDS011;8620;51.168;4.154;2022-09-25T16:20:06;0.20;;;0.20;;
17006;SDS011;8620;51.168;4.154;2022-09-25T16:22:57;0.20;;;0.20;;
17006;SDS011;8620;51.168;4.154;2022-09-25T16:30:58;0.20;;;0.20;;
17006;SDS011;8620;51.168;4.154;2022-09-25T16:33:30;0.20;;;0.20;;
17006;SDS011;8620;51.168;4.154;2022-09-25T16:36:10;0.20;;;0.20;;
17006;SDS011;8620;51.168;4.154;2022-09-25T16:38:42;0.20;;;0.20;;
17006;SDS011;8620;51.168;4.154;2022-09-25T16:41:34;0.20;;;0.20;;
17006;SDS011;8620;51.168;4.154;2022-09-25T16:44:18;0.20;;;0.20;;
17006;SDS011;8620;51.168;4.154;2022-09-25T16:47:03;0.20;;;0.20;;
17006;SDS011;8620;51.168;4.154;2022-09-25T16:49:38;0.20;;;0.20;;
17006;SDS011;8620;51.168;4.154;2022-09-25T16:52:05;0.20;;;0.20;;
17006;SDS011;8620;51.168;4.154;2022-09-25T16:54:35;0.23;;;0.23;;
17006;SDS011;8620;51.168;4.154;2022-09-25T16:57:24;0.30;;;0.30;;
17006;SDS011;8620;51.168;4.154;2022-09-25T16:59:53;0.77;;;0.77;;
17006;SDS011;8620;51.168;4.154;2022-09-25T17:02:27;0.23;;;0.23;;
17006;SDS011;8620;51.168;4.154;2022-09-25T17:05:21;0.40;;;0.40;;
17006;SDS011;8620;51.168;4.154;2022-09-25T17:08:09;0.30;;;0.30;;
17006;SDS011;8620;51.168;4.154;2022-09-25T17:11:22;0.30;;;0.30;;
17006;SDS011;8620;51.168;4.154;2022-09-25T17:16:54;0.30;;;0.30;;
17006;SDS011;8620;51.168;4.154;2022-09-25T17:19:26;0.30;;;0.30;;
17006;SDS011;8620;51.168;4.154;2022-09-25T17:21:54;0.30;;;0.30;;
17006;SDS011;8620;51.168;4.154;2022-09-25T17:24:24;0.30;;;0.30;;
17006;SDS011;8620;51.168;4.154;2022-09-25T17:27:04;0.30;;;0.30;;
17006;SDS011;8620;51.168;4.154;2022-09-25T17:29:51;0.40;;;0.40;;
17006;SDS011;8620;51.168;4.154;2022-09-25T17:32:19;0.40;;;0.40;;
17006;SDS011;8620;51.168;4.154;2022-09-25T17:35:03;0.40;;;0.40;;
17006;SDS011;8620;51.168;4.154;2022-09-25T17:38:19;0.40;;;0.40;;
17006;SDS011;8620;51.168;4.154;2022-09-25T17:40:59;0.40;;;0.40;;
17006;SDS011;8620;51.168;4.154;2022-09-25T17:43:32;0.40;;;0.40;;
17006;SDS011;8620;51.168;4.154;2022-09-25T17:46:10;0.40;;;0.40;;
17006;SDS011;8620;51.168;4.154;2022-09-25T17:48:46;0.30;;;0.30;;
17006;SDS011;8620;51.168;4.154;2022-09-25T17:51:32;0.40;;;0.40;;
17006;SDS011;8620;51.168;4.154;2022-09-25T17:54:24;0.40;;;0.40;;
17006;SDS011;8620;51.168;4.154;2022-09-25T17:56:55;0.47;;;0.47;;
17006;SDS011;8620;51.168;4.154;2022-09-25T17:59:26;0.40;;;0.40;;
17006;SDS011;8620;51.168;4.154;2022-09-25T18:04:45;0.40;;;0.40;;
17006;SDS011;8620;51.168;4.154;2022-09-25T18:07:23;0.40;;;0.40;;
17006;SDS011;8620;51.168;4.154;2022-09-25T18:09:59;0.30;;;0.30;;
17006;SDS011;8620;51.168;4.154;2022-09-25T18:12:25;0.50;;;0.50;;
17006;SDS011;8620;51.168;4.154;2022-09-25T18:14:53;0.40;;;0.40;;
17006;SDS011;8620;51.168;4.154;2022-09-25T18:20:21;0.30;;;0.30;;
17006;SDS011;8620;51.168;4.154;2022-09-25T18:23:17;0.30;;;0.30;;
17006;SDS011;8620;51.168;4.154;2022-09-25T18:25:45;1.43;;;1.33;;
17006;SDS011;8620;51.168;4.154;2022-09-25T18:28:11;0.30;;;0.30;;
17006;SDS011;8620;51.168;4.154;2022-09-25T18:30:38;1.23;;;1.23;;
17006;SDS011;8620;51.168;4.154;2022-09-25T18:33:04;0.40;;;0.40;;
17006;SDS011;8620;51.168;4.154;2022-09-25T18:35:40;0.40;;;0.40;;
17006;SDS011;8620;51.168;4.154;2022-09-25T18:38:07;0.30;;;0.30;;
17006;SDS011;8620;51.168;4.154;2022-09-25T18:40:40;0.40;;;0.40;;
17006;SDS011;8620;51.168;4.154;2022-09-25T18:43:18;0.30;;;0.30;;
17006;SDS011;8620;51.168;4.154;2022-09-25T18:48:50;0.47;;;0.47;;
17006;SDS011;8620;51.168;4.154;2022-09-25T18:51:20;0.40;;;0.40;;
17006;SDS011;8620;51.168;4.154;2022-09-25T18:53:48;0.50;;;0.50;;
17006;SDS011;8620;51.168;4.154;2022-09-25T18:56:26;0.40;;;0.40;;
17006;SDS011;8620;51.168;4.154;2022-09-25T18:58:58;0.50;;;0.50;;
17006;SDS011;8620;51.168;4.154;2022-09-25T19:01:30;0.50;;;0.50;;
17006;SDS011;8620;51.168;4.154;2022-09-25T19:03:59;0.50;;;0.50;;
17006;SDS011;8620;51.168;4.154;2022-09-25T19:06:28;0.63;;;0.63;;
17006;SDS011;8620;51.168;4.154;2022-09-25T19:08:58;0.47;;;0.47;;
17006;SDS011;8620;51.168;4.154;2022-09-25T19:11:25;0.50;;;0.50;;
17006;SDS011;8620;51.168;4.154;2022-09-25T19:14:01;0.60;;;0.60;;
17006;SDS011;8620;51.168;4.154;2022-09-25T19:16:28;0.60;;;0.60;;
17006;SDS011;8620;51.168;4.154;2022-09-25T19:19:05;5.57;;;5.10;;
17006;SDS011;8620;51.168;4.154;2022-09-25T19:21:47;0.60;;;0.60;;
17006;SDS011;8620;51.168;4.154;2022-09-25T19:24:24;0.40;;;0.40;;
17006;SDS011;8620;51.168;4.154;2022-09-25T19:26:50;0.50;;;0.50;;
17006;SDS011;8620;51.168;4.154;2022-09-25T19:29:30;0.50;;;0.50;;
17006;SDS011;8620;51.168;4.154;2022-09-25T19:32:22;1.10;;;1.03;;
17006;SDS011;8620;51.168;4.154;2022-09-25T19:34:53;0.70;;;0.70;;
17006;SDS011;8620;51.168;4.154;2022-09-25T19:37:42;0.67;;;0.67;;
17006;SDS011;8620;51.168;4.154;2022-09-25T19:40:16;0.43;;;0.43;;
17006;SDS011;8620;51.168;4.154;2022-09-25T19:43:00;0.60;;;0.60;;
17006;SDS011;8620;51.168;4.154;2022-09-25T19:45:31;0.67;;;0.67;;
17006;SDS011;8620;51.168;4.154;2022-09-25T19:50:50;0.97;;;0.90;;
17006;SDS011;8620;51.168;4.154;2022-09-25T19:53:24;2.50;;;2.40;;
17006;SDS011;8620;51.168;4.154;2022-09-25T19:55:50;0.53;;;0.53;;
17006;SDS011;8620;51.168;4.154;2022-09-25T19:58:30;0.50;;;0.50;;
17006;SDS011;8620;51.168;4.154;2022-09-25T20:01:02;0.40;;;0.40;;
17006;SDS011;8620;51.168;4.154;2022-09-25T20:03:41;0.50;;;0.50;;
17006;SDS011;8620;51.168;4.154;2022-09-25T20:06:08;0.50;;;0.50;;
17006;SDS011;8620;51.168;4.154;2022-09-25T20:08:34;0.50;;;0.50;;
17006;SDS011;8620;51.168;4.154;2022-09-25T20:14:04;0.60;;;0.60;;
17006;SDS011;8620;51.168;4.154;2022-09-25T20:16:48;0.43;;;0.43;;
17006;SDS011;8620;51.168;4.154;2022-09-25T20:19:33;0.40;;;0.40;;
17006;SDS011;8620;51.168;4.154;2022-09-25T20:22:16;0.40;;;0.40;;
17006;SDS011;8620;51.168;4.154;2022-09-25T20:24:42;0.40;;;0.40;;
17006;SDS011;8620;51.168;4.154;2022-09-25T20:27:08;0.70;;;0.70;;
17006;SDS011;8620;51.168;4.154;2022-09-25T20:29:37;0.80;;;0.80;;
17006;SDS011;8620;51.168;4.154;2022-09-25T20:32:05;0.40;;;0.40;;
17006;SDS011;8620;51.168;4.154;2022-09-25T20:34:34;0.40;;;0.40;;
17006;SDS011;8620;51.168;4.154;2022-09-25T20:37:02;3.13;;;0.60;;